CheckWX is a tool to help pilots better visualize weather data.  It is not intended as a substitute for an official pre-flight weather briefing.

07:38:53 UTC

GMMW TAF
Nador International Airport
Nador, Morocco
TAF GMMW 190500Z 1906/2012 VRB02KT CAVOK

Jun-19@
06:00 UTC

Jun-19 @ 06:00 UTC

Jun-20@
12:00 UTC

Jun-20 @ 12:00 UTC

TAF GMMW 190500Z 1906/2012 VRB02KT CAVOK
Wind
  • Variable at 2 KTS
Conditions
No significant weather
Cloud Levels
  • No significant clouds